Time;durP1;ratioP1;P1;durP2;ratioP2;P2;SDS_P1;SDS_P2;PMS_P1;PMS_P2;Temp;Humidity;BMP_temperature;BMP_pressure;BME280_temperature;BME280_humidity;BME280_pressure;Samples;Min_cycle;Max_cycle;Signal;HPM_P1;HPM_P2
2022/12/18 00:00:29;;;;;;;7.18;6.42;;;;;;;10.66;94.69;100797.88;449334;117;930643;-79
2022/12/18 00:01:35;;;;;;;7.34;6.74;;;;;;;10.68;94.61;100800.41;449612;118;922896;-80
2022/12/18 00:02:38;;;;;;;8.07;7.12;;;;;;;10.67;94.65;100807.75;449440;118;922488;-79
2022/12/18 00:03:42;;;;;;;7.61;6.51;;;;;;;10.68;94.70;100811.31;449564;116;923128;-80
2022/12/18 00:04:47;;;;;;;7.31;6.44;;;;;;;10.68;94.71;100803.13;449567;118;922547;-79
2022/12/18 00:05:51;;;;;;;7.05;6.35;;;;;;;10.68;94.75;100806.70;449545;117;922533;-80
2022/12/18 00:06:55;;;;;;;7.54;6.87;;;;;;;10.68;94.67;100801.25;449442;118;930492;-80
2022/12/18 00:07:58;;;;;;;7.63;6.89;;;;;;;10.68;94.70;100795.80;449629;118;922665;-78
2022/12/18 00:09:03;;;;;;;7.28;5.88;;;;;;;10.69;94.89;100802.09;449601;118;922603;-78
2022/12/18 00:10:07;;;;;;;7.21;6.61;;;;;;;10.69;94.84;100793.91;449442;118;922609;-78
2022/12/18 00:11:16;;;;;;;8.16;6.15;;;;;;;10.70;94.89;100790.11;449569;118;923041;-78
2022/12/18 00:12:19;;;;;;;6.74;6.20;;;;;;;10.71;94.90;100789.91;449503;118;922512;-81
2022/12/18 00:13:22;;;;;;;6.88;6.24;;;;;;;10.73;95.06;100786.98;449686;116;923134;-78
2022/12/18 00:14:26;;;;;;;6.49;5.89;;;;;;;10.73;94.95;100797.89;449655;118;923047;-79
2022/12/18 00:15:29;;;;;;;7.53;6.91;;;;;;;10.74;94.95;100794.11;449670;118;922560;-78
2022/12/18 00:16:35;;;;;;;6.77;6.17;;;;;;;10.74;94.94;100791.39;449612;118;922514;-80
2022/12/18 00:17:37;;;;;;;6.88;6.17;;;;;;;10.75;95.00;100785.70;449484;117;923009;-79
2022/12/18 00:18:40;;;;;;;7.31;6.18;;;;;;;10.75;94.98;100780.24;450180;113;922220;-80
2022/12/18 00:19:44;;;;;;;7.19;6.60;;;;;;;10.76;94.95;100765.56;450885;113;922064;-78
2022/12/18 00:20:47;;;;;;;7.79;6.86;;;;;;;10.77;94.93;100752.77;450975;113;922088;-79
2022/12/18 00:21:50;;;;;;;7.54;6.74;;;;;;;10.79;94.96;100758.86;450975;113;922003;-78
2022/12/18 00:22:54;;;;;;;6.95;6.24;;;;;;;10.80;95.13;100760.55;450731;114;922607;-80
2022/12/18 00:23:57;;;;;;;6.97;6.41;;;;;;;10.82;94.98;100758.42;450920;113;922504;-80
2022/12/18 00:25:00;;;;;;;6.88;6.22;;;;;;;10.82;94.97;100747.52;450862;113;922041;-78
2022/12/18 00:26:07;;;;;;;7.49;6.79;;;;;;;10.82;94.94;100725.69;450832;118;922103;-79
2022/12/18 00:27:10;;;;;;;6.69;6.16;;;;;;;10.82;94.87;100687.50;450658;118;922254;-80
2022/12/18 00:28:13;;;;;;;7.17;6.67;;;;;;;10.81;94.90;100637.56;450809;116;922202;-80
2022/12/18 00:29:16;;;;;;;7.49;6.89;;;;;;;10.82;94.88;100636.52;450801;118;922278;-80
2022/12/18 00:30:19;;;;;;;8.04;7.24;;;;;;;10.83;94.82;100656.45;450835;117;922044;-80
2022/12/18 00:31:24;;;;;;;7.22;6.59;;;;;;;10.82;94.86;100677.44;450855;118;922022;-80
2022/12/18 00:32:28;;;;;;;8.57;7.38;;;;;;;10.83;94.71;100691.91;450590;118;922246;-79
2022/12/18 00:33:31;;;;;;;8.26;7.62;;;;;;;10.83;94.80;100709.12;450757;116;922461;-79
2022/12/18 00:34:34;;;;;;;8.55;7.58;;;;;;;10.82;94.83;100722.97;450465;118;922852;-80
2022/12/18 00:35:37;;;;;;;7.52;6.86;;;;;;;10.83;94.72;100750.03;450586;118;922611;-80
2022/12/18 00:36:41;;;;;;;7.64;7.04;;;;;;;10.82;94.81;100770.17;450657;118;922054;-80
2022/12/18 00:37:44;;;;;;;7.34;6.73;;;;;;;10.83;94.73;100787.38;450691;118;922629;-80
2022/12/18 00:38:48;;;;;;;7.98;7.26;;;;;;;10.82;94.81;100804.80;450748;116;930317;-79
2022/12/18 00:39:52;;;;;;;7.59;6.89;;;;;;;10.82;94.67;100810.25;450575;114;922048;-76
2022/12/18 00:40:56;;;;;;;9.91;7.22;;;;;;;10.82;94.76;100802.91;449885;117;922912;-81
2022/12/18 00:43:20;;;;;;;7.29;6.70;;;;;;;10.83;94.81;100803.75;449645;118;923133;-80
2022/12/18 00:44:23;;;;;;;5.90;5.51;;;;;;;10.83;94.89;100776.47;449839;118;922512;-79
2022/12/18 00:45:30;;;;;;;8.86;8.11;;;;;;;10.82;94.79;100769.33;449750;118;922568;-78
2022/12/18 00:46:33;;;;;;;7.51;6.85;;;;;;;10.81;94.76;100770.38;449586;118;922480;-78
2022/12/18 00:47:36;;;;;;;7.27;6.79;;;;;;;10.81;94.77;100784.86;449773;118;923011;-79
2022/12/18 00:48:39;;;;;;;7.94;7.24;;;;;;;10.81;94.90;100781.29;442955;117;922617;-80
2022/12/18 00:49:43;;;;;;;8.19;7.35;;;;;;;10.82;94.86;100769.33;443256;118;923206;-79
2022/12/18 00:50:47;;;;;;;7.68;6.73;;;;;;;10.81;94.84;100757.58;449778;117;922426;-78
2022/12/18 00:51:51;;;;;;;6.58;6.07;;;;;;;10.80;94.75;100766.84;449571;118;922504;-78
2022/12/18 00:52:54;;;;;;;6.87;6.28;;;;;;;10.81;94.79;100765.77;449712;118;922906;-81
2022/12/18 00:53:58;;;;;;;7.48;6.78;;;;;;;10.81;94.75;100763.03;449650;116;922958;-79
2022/12/18 00:55:01;;;;;;;7.24;6.55;;;;;;;10.82;94.78;100763.88;449736;114;922427;-79
2022/12/18 00:56:07;;;;;;;7.02;6.47;;;;;;;10.82;94.86;100766.61;449351;117;922980;-80
2022/12/18 00:57:10;;;;;;;6.97;6.44;;;;;;;10.81;94.71;100763.03;449622;118;922552;-80
2022/12/18 00:58:15;;;;;;;7.38;6.54;;;;;;;10.82;94.66;100758.42;449632;116;923012;-81
2022/12/18 00:59:18;;;;;;;7.53;6.86;;;;;;;10.83;94.67;100765.56;449402;118;922697;-79
2022/12/18 01:00:22;;;;;;;7.94;7.25;;;;;;;10.82;94.75;100775.63;449581;118;922962;-80
2022/12/18 01:01:25;;;;;;;7.27;6.41;;;;;;;10.82;94.66;100774.79;449580;118;923310;-80
2022/12/18 01:02:28;;;;;;;7.81;7.21;;;;;;;10.83;94.67;100787.38;449584;118;930562;-79
2022/12/18 01:03:32;;;;;;;8.04;7.27;;;;;;;10.83;94.75;100785.50;449521;116;922587;-79
2022/12/18 01:04:35;;;;;;;8.27;6.49;;;;;;;10.83;94.67;100771.02;449613;118;922543;-79
2022/12/18 01:05:42;;;;;;;7.54;6.94;;;;;;;10.83;94.71;100776.47;449632;118;923022;-80
2022/12/18 01:06:45;;;;;;;8.76;7.38;;;;;;;10.84;94.75;100775.42;449434;118;923352;-81
2022/12/18 01:07:48;;;;;;;6.61;6.17;;;;;;;10.84;94.65;100772.70;449655;118;923165;-79
2022/12/18 01:08:51;;;;;;;7.33;6.73;;;;;;;10.84;94.70;100778.16;449657;116;922680;-80
2022/12/18 01:09:54;;;;;;;7.65;7.05;;;;;;;10.83;94.71;100771.86;449704;117;923000;-79
2022/12/18 01:10:58;;;;;;;7.66;7.06;;;;;;;10.83;94.80;100768.28;449662;117;922318;-79
2022/12/18 01:12:01;;;;;;;7.96;6.73;;;;;;;10.83;94.82;100774.58;449636;118;922775;-80
2022/12/18 01:13:04;;;;;;;6.60;6.10;;;;;;;10.84;94.70;100775.42;449617;116;922949;-79
2022/12/18 01:14:07;;;;;;;8.86;6.96;;;;;;;10.83;94.79;100766.41;449668;118;922558;-79
2022/12/18 01:15:13;;;;;;;7.78;7.15;;;;;;;10.84;94.62;100764.52;449471;118;922934;-79
2022/12/18 01:16:17;;;;;;;7.32;6.73;;;;;;;10.83;94.72;100765.56;449572;118;922612;-80
2022/12/18 01:17:21;;;;;;;8.03;7.16;;;;;;;10.83;94.64;100765.56;449548;118;922644;-80
2022/12/18 01:18:24;;;;;;;8.03;7.29;;;;;;;10.83;94.66;100769.13;449569;118;922532;-79
2022/12/18 01:19:27;;;;;;;7.04;6.47;;;;;;;10.83;94.62;100760.95;449668;118;922567;-79
2022/12/18 01:20:30;;;;;;;7.80;7.06;;;;;;;10.84;94.61;100753.60;449521;118;922809;-79
2022/12/18 01:21:33;;;;;;;7.35;6.65;;;;;;;10.83;94.55;100751.92;449668;118;922869;-79
2022/12/18 01:22:38;;;;;;;8.05;7.29;;;;;;;10.84;94.53;100748.15;449434;117;922535;-80
2022/12/18 01:23:43;;;;;;;7.79;7.11;;;;;;;10.83;94.51;100744.58;449433;116;923094;-80
2022/12/18 01:24:46;;;;;;;7.99;7.28;;;;;;;10.83;94.59;100746.47;449641;118;922884;-80
2022/12/18 01:25:49;;;;;;;7.35;6.74;;;;;;;10.83;94.50;100741.02;449679;118;923051;-80
2022/12/18 01:26:52;;;;;;;8.39;7.00;;;;;;;10.84;94.53;100739.97;449681;117;923113;-79
2022/12/18 01:27:55;;;;;;;7.09;6.54;;;;;;;10.84;94.41;100739.97;449724;118;922405;-79
2022/12/18 01:28:58;;;;;;;10.21;7.07;;;;;;;10.83;94.47;100738.28;449653;116;922516;-79
2022/12/18 01:30:02;;;;;;;6.91;6.33;;;;;;;10.84;94.59;100742.70;449641;118;922964;-79
2022/12/18 01:31:20;;;;;;;7.90;7.21;;;;;;;10.82;94.47;100751.08;449525;118;922797;-79
2022/12/18 01:32:23;;;;;;;8.11;7.41;;;;;;;10.83;94.59;100754.65;449450;118;922614;-80
2022/12/18 01:33:26;;;;;;;6.81;6.21;;;;;;;10.83;94.48;100752.77;449609;116;922566;-80
2022/12/18 01:34:29;;;;;;;7.90;7.19;;;;;;;10.83;94.48;100747.30;449619;118;922502;-80
2022/12/18 01:35:32;;;;;;;7.58;6.53;;;;;;;10.82;94.46;100745.63;449634;118;922996;-81
2022/12/18 01:36:38;;;;;;;6.86;6.31;;;;;;;10.82;94.44;100742.06;449657;117;922988;-80
2022/12/18 01:37:42;;;;;;;6.92;6.04;;;;;;;10.81;94.47;100732.19;449441;118;922707;-80
2022/12/18 01:38:45;;;;;;;7.42;6.83;;;;;;;10.81;94.58;100732.19;449635;116;922955;-79
2022/12/18 01:39:49;;;;;;;7.34;6.73;;;;;;;10.80;94.55;100738.72;457332;116;922844;-79
2022/12/18 01:40:58;;;;;;;6.75;6.21;;;;;;;10.78;94.55;100738.92;457389;115;922348;-81
2022/12/18 01:42:03;;;;;;;7.41;6.81;;;;;;;10.77;94.49;100742.70;457277;116;922524;-80
2022/12/18 01:43:09;;;;;;;6.55;6.04;;;;;;;10.78;94.50;100746.27;457258;114;922473;-78
2022/12/18 01:44:48;;;;;;;8.21;7.27;;;;;;;10.78;94.60;100738.09;457066;114;922997;-81
2022/12/18 01:45:52;;;;;;;8.50;7.77;;;;;;;10.77;94.52;100744.59;457294;116;922540;-80
2022/12/18 01:46:55;;;;;;;8.87;8.06;;;;;;;10.76;94.48;100748.36;457490;115;923004;-80
2022/12/18 01:48:04;;;;;;;8.15;7.46;;;;;;;10.76;94.61;100740.17;457416;116;922849;-80
2022/12/18 01:49:07;;;;;;;8.07;7.28;;;;;;;10.76;94.60;100737.45;457078;114;922498;-80
2022/12/18 01:50:18;;;;;;;8.04;7.31;;;;;;;10.74;94.49;100747.75;457352;116;922473;-79
2022/12/18 01:51:22;;;;;;;9.58;8.62;;;;;;;10.74;94.51;100748.59;457282;116;923032;-81
2022/12/18 01:52:28;;;;;;;7.96;7.34;;;;;;;10.73;94.54;100755.09;457394;116;922986;-80
2022/12/18 01:53:32;;;;;;;7.26;6.66;;;;;;;10.74;94.54;100755.94;457396;114;922660;-80
2022/12/18 01:54:35;;;;;;;7.12;6.47;;;;;;;10.74;94.64;100761.39;457382;115;923079;-80
2022/12/18 01:55:42;;;;;;;7.20;6.67;;;;;;;10.73;94.52;100752.36;450159;117;923195;-79
2022/12/18 01:56:47;;;;;;;7.29;6.72;;;;;;;10.74;94.56;100761.39;450489;116;923056;-79
2022/12/18 01:57:53;;;;;;;7.33;6.72;;;;;;;10.73;94.64;100766.00;457675;116;922816;-80
2022/12/18 01:59:03;;;;;;;7.82;7.12;;;;;;;10.73;94.66;100759.70;457206;114;922457;-80
2022/12/18 02:00:11;;;;;;;7.84;7.24;;;;;;;10.72;94.70;100758.86;457049;116;922371;-81
2022/12/18 02:01:17;;;;;;;7.33;6.78;;;;;;;10.72;94.67;100752.56;457799;116;922854;-81
2022/12/18 02:02:21;;;;;;;6.87;6.38;;;;;;;10.71;94.63;100759.91;457523;116;922418;-81
2022/12/18 02:03:24;;;;;;;7.43;6.82;;;;;;;10.71;94.65;100751.72;457228;116;930344;-80
2022/12/18 02:04:28;;;;;;;7.34;6.74;;;;;;;10.71;94.70;100767.25;457147;116;922578;-80
2022/12/18 02:05:56;;;;;;;7.69;6.94;;;;;;;10.72;94.71;100768.92;457366;116;922472;-79
2022/12/18 02:07:02;;;;;;;7.71;7.11;;;;;;;10.71;94.82;100765.36;453975;116;930519;-80
2022/12/18 02:08:12;;;;;;;7.51;6.81;;;;;;;10.70;94.73;100774.58;457281;116;922504;-80
2022/12/18 02:09:21;;;;;;;;;;;;;;;10.70;94.75;100771.02;460877;114;922124;-79
2022/12/18 02:11:06;;;;;;;7.19;6.49;;;;;;;10.78;94.90;100768.92;477175;110;946756;-80
2022/12/18 02:12:22;;;;;;;7.71;7.12;;;;;;;10.67;94.79;100774.18;465510;114;922486;-79
2022/12/18 02:13:48;;;;;;;7.61;7.02;;;;;;;10.66;95.00;100775.22;462335;114;922490;-80
2022/12/18 02:15:16;;;;;;;7.46;6.74;;;;;;;10.64;95.00;100769.16;449562;118;923013;-79
2022/12/18 02:16:25;;;;;;;6.92;6.36;;;;;;;10.63;95.00;100770.20;449570;117;922585;-80
2022/12/18 02:17:34;;;;;;;7.74;7.09;;;;;;;10.63;95.19;100770.20;449566;118;922555;-79
2022/12/18 02:18:41;;;;;;;7.12;6.49;;;;;;;10.62;95.11;100785.72;451257;116;922602;-79
2022/12/18 02:19:51;;;;;;;6.58;6.09;;;;;;;10.62;95.23;100774.81;457387;116;922652;-80
2022/12/18 02:21:07;;;;;;;7.27;6.62;;;;;;;10.61;95.08;100784.04;457374;116;923001;-77
2022/12/18 02:22:32;;;;;;;7.59;6.88;;;;;;;10.61;95.15;100784.04;456848;115;922503;-79
2022/12/18 02:23:41;;;;;;;7.43;6.52;;;;;;;10.62;95.17;100779.43;457188;114;923139;-79
2022/12/18 02:25:06;;;;;;;7.77;6.94;;;;;;;10.62;95.13;100783.00;456930;115;923011;-79
2022/12/18 02:26:28;;;;;;;7.19;6.69;;;;;;;10.63;95.21;100781.11;456835;115;922507;-80
2022/12/18 02:27:33;;;;;;;7.18;6.61;;;;;;;10.62;95.11;100787.61;457400;116;923027;-80
2022/12/18 02:28:43;;;;;;;7.62;7.03;;;;;;;10.62;95.14;100790.34;457269;114;922606;-78
2022/12/18 02:29:52;;;;;;;6.77;6.04;;;;;;;10.62;95.16;100785.72;452106;117;922729;-81
2022/12/18 02:31:06;;;;;;;7.08;6.49;;;;;;;10.72;95.28;100780.68;477151;110;946934;-79
2022/12/18 02:32:16;;;;;;;7.00;6.47;;;;;;;10.62;95.13;100776.70;458281;115;922619;-80
2022/12/18 02:33:22;;;;;;;7.09;6.54;;;;;;;10.62;95.13;100782.16;460624;112;922629;-80
2022/12/18 02:34:28;;;;;;;7.54;6.89;;;;;;;10.61;95.11;100775.86;463133;114;922415;-80
2022/12/18 02:35:33;;;;;;;7.13;6.63;;;;;;;10.61;95.24;100778.59;463079;114;922541;-81
2022/12/18 02:36:40;;;;;;;7.08;6.52;;;;;;;10.62;95.19;100785.72;463089;114;923665;-81
2022/12/18 02:37:46;;;;;;;7.28;6.78;;;;;;;10.62;95.26;100788.45;463103;114;922426;-79
2022/12/18 02:38:52;;;;;;;7.09;6.48;;;;;;;10.64;95.28;100791.78;465662;112;922384;-81
2022/12/18 02:39:58;;;;;;;8.12;7.51;;;;;;;10.64;95.21;100788.25;471381;112;922530;-81
2022/12/18 02:41:03;;;;;;;7.35;6.71;;;;;;;10.64;95.14;100797.23;471397;112;922510;-80
2022/12/18 02:42:09;;;;;;;7.37;6.73;;;;;;;10.65;95.15;100798.08;471422;112;922929;-81
2022/12/18 02:43:15;;;;;;;7.76;6.99;;;;;;;10.65;95.18;100803.53;471398;112;922407;-80
2022/12/18 02:44:18;;;;;;;7.06;6.44;;;;;;;10.67;95.27;100798.72;463311;112;922471;-80
2022/12/18 02:45:21;;;;;;;6.78;6.28;;;;;;;10.67;95.17;100809.63;463383;114;922377;-81
2022/12/18 02:46:28;;;;;;;6.90;6.33;;;;;;;10.68;95.25;100805.86;445462;119;922460;-80
2022/12/18 02:47:35;;;;;;;6.54;6.06;;;;;;;10.68;95.12;100803.97;455066;114;922581;-80
2022/12/18 02:48:38;;;;;;;6.41;5.90;;;;;;;10.70;95.27;100803.74;452091;117;922394;-79
2022/12/18 02:50:03;;;;;;;6.78;6.22;;;;;;;10.70;95.26;100803.74;456514;116;922837;-80
2022/12/18 02:51:20;;;;;;;6.73;6.24;;;;;;;10.71;95.20;100805.42;439882;120;930611;-79
2022/12/18 02:52:59;;;;;;;6.74;6.17;;;;;;;10.82;95.30;100810.25;488187;107;922806;-79
2022/12/18 02:54:15;;;;;;;6.04;5.58;;;;;;;10.72;95.19;100815.29;471903;111;922538;-80
2022/12/18 02:55:37;;;;;;;6.38;5.88;;;;;;;10.71;95.33;100825.36;467785;111;922483;-79
2022/12/18 02:56:45;;;;;;;6.31;5.81;;;;;;;10.72;95.35;100821.59;466937;113;922891;-80
2022/12/18 02:58:16;;;;;;;6.41;5.91;;;;;;;10.72;95.27;100823.47;466962;113;922432;-81
2022/12/18 02:59:23;;;;;;;6.92;6.39;;;;;;;10.72;95.32;100824.31;467405;111;922857;-79
2022/12/18 03:00:41;;;;;;;6.38;5.88;;;;;;;10.72;95.37;100818.86;466942;113;922460;-80
2022/12/18 03:01:54;;;;;;;6.73;6.08;;;;;;;10.72;95.41;100821.59;466975;113;922788;-80
2022/12/18 03:03:01;;;;;;;6.53;5.81;;;;;;;10.73;95.31;100823.27;466795;113;922604;-80
2022/12/18 03:04:14;;;;;;;6.38;5.93;;;;;;;10.73;95.26;100825.16;472627;111;923128;-80
2022/12/18 03:05:27;;;;;;;6.22;5.76;;;;;;;10.74;95.26;100826.84;475424;111;922898;-81
2022/12/18 03:06:34;;;;;;;7.62;5.64;;;;;;;10.74;95.20;100821.39;475216;111;923019;-79
2022/12/18 03:07:59;;;;;;;5.89;5.37;;;;;;;10.74;95.31;100821.39;475283;111;922471;-80
2022/12/18 03:09:13;;;;;;;6.16;5.68;;;;;;;10.75;95.24;100821.16;472443;111;922542;-79
2022/12/18 03:10:20;;;;;;;6.28;5.77;;;;;;;10.76;95.33;100827.45;471471;112;922523;-80
2022/12/18 03:12:22;;;;;;;6.17;5.70;;;;;;;10.75;95.36;100823.87;471451;112;922462;-80
2022/12/18 03:12:34;;;;;;;6.49;5.94;;;;;;;10.76;95.23;100827.45;468776;112;922972;-80
2022/12/18 03:13:47;;;;;;;6.42;5.81;;;;;;;10.77;95.23;100826.41;470868;111;923336;-80
2022/12/18 03:15:09;;;;;;;8.18;5.82;;;;;;;10.77;95.20;100826.41;466944;113;922593;-80
2022/12/18 03:16:20;;;;;;;7.17;6.61;;;;;;;10.78;95.16;100820.75;466316;113;922486;-80
2022/12/18 03:17:27;;;;;;;7.58;6.92;;;;;;;10.78;95.26;100817.18;467061;113;922380;-79
2022/12/18 03:18:34;;;;;;;7.34;6.79;;;;;;;10.79;95.22;100822.44;467354;111;922833;-80
2022/12/18 03:19:39;;;;;;;6.71;6.17;;;;;;;10.79;95.28;100825.16;472312;112;922785;-81
2022/12/18 03:20:45;;;;;;;7.13;6.61;;;;;;;10.81;95.21;100827.66;472442;112;922434;-79
2022/12/18 03:21:53;;;;;;;6.92;6.37;;;;;;;10.80;95.26;100829.58;472409;112;922523;-80
2022/12/18 03:23:00;;;;;;;7.48;6.88;;;;;;;10.81;95.14;100827.66;472412;112;922450;-80
2022/12/18 03:24:07;;;;;;;7.22;6.72;;;;;;;10.82;95.15;100823.88;473673;111;923546;-80
2022/12/18 03:25:14;;;;;;;7.28;6.70;;;;;;;10.83;95.09;100831.02;475424;111;922504;-82
2022/12/18 03:26:23;;;;;;;6.94;6.34;;;;;;;10.84;95.16;100832.71;475386;111;922603;-80
2022/12/18 03:27:31;;;;;;;7.58;6.94;;;;;;;10.84;95.03;100832.71;475533;111;922471;-79
2022/12/18 03:28:38;;;;;;;7.12;6.62;;;;;;;10.84;95.05;100839.01;467901;113;922664;-80
2022/12/18 03:29:50;;;;;;;7.62;6.99;;;;;;;10.85;94.97;100843.42;469057;111;922538;-79
2022/12/18 03:30:58;;;;;;;7.30;6.73;;;;;;;10.85;94.90;100837.96;475059;111;922455;-80
2022/12/18 03:32:08;;;;;;;6.96;6.48;;;;;;;10.86;94.89;100845.07;475356;111;922779;-80
2022/12/18 03:33:19;;;;;;;7.47;6.86;;;;;;;10.86;94.96;100836.89;468275;113;922990;-80
2022/12/18 03:34:26;;;;;;;;;;;;;;;10.87;94.87;100841.30;465520;113;922083;-80
2022/12/18 03:35:33;;;;;;;12.12;7.39;;;;;;;10.88;94.96;100850.33;460148;115;922550;-81
2022/12/18 03:36:36;;;;;;;8.29;7.35;;;;;;;10.86;94.91;100847.80;460675;113;923052;-80
2022/12/18 03:37:40;;;;;;;7.79;6.95;;;;;;;10.85;94.95;100842.58;467060;113;922477;-79
2022/12/18 03:38:43;;;;;;;7.87;7.12;;;;;;;10.86;94.96;100846.98;468202;111;923005;-80
2022/12/18 03:39:47;;;;;;;7.50;6.80;;;;;;;10.86;94.89;100852.45;471534;112;922938;-80
2022/12/18 03:40:56;;;;;;;6.58;5.93;;;;;;;10.86;94.87;100847.80;471677;112;922447;-80
2022/12/18 03:42:03;;;;;;;6.97;6.27;;;;;;;10.86;94.92;100852.45;446227;119;923068;-81
2022/12/18 03:43:30;;;;;;;6.44;5.88;;;;;;;10.85;94.89;100853.48;463779;112;923125;-80
2022/12/18 03:44:46;;;;;;;6.52;5.91;;;;;;;10.86;94.85;100846.98;466882;113;922923;-79
2022/12/18 03:45:56;;;;;;;6.56;6.06;;;;;;;10.85;94.95;100857.05;466937;113;922977;-79
2022/12/18 03:47:06;;;;;;;6.75;6.11;;;;;;;10.86;94.86;100857.90;466620;113;923042;-81
2022/12/18 03:48:16;;;;;;;6.04;5.54;;;;;;;10.84;94.76;100849.92;466948;113;922527;-80
2022/12/18 03:49:32;;;;;;;6.09;5.62;;;;;;;10.84;94.89;100859.98;470847;111;922463;-80
2022/12/18 03:50:52;;;;;;;6.06;5.57;;;;;;;10.95;94.80;100861.24;493765;107;933551;-80
2022/12/18 03:52:20;;;;;;;5.88;5.41;;;;;;;10.82;94.87;100867.53;484110;109;922897;-80
2022/12/18 03:53:26;;;;;;;5.97;5.46;;;;;;;10.81;94.78;100861.23;479883;109;922982;-80
2022/12/18 03:54:31;;;;;;;6.52;5.99;;;;;;;10.77;94.84;100870.05;448057;113;923277;-79
2022/12/18 03:55:38;;;;;;;6.09;5.68;;;;;;;10.75;94.87;100872.97;471183;111;922934;-80
2022/12/18 03:56:45;;;;;;;6.12;5.64;;;;;;;10.74;94.90;100873.20;475412;111;922562;-79
2022/12/18 03:57:48;;;;;;;6.02;5.52;;;;;;;10.73;94.87;100877.81;475353;111;922808;-79
2022/12/18 03:58:55;;;;;;;5.64;5.20;;;;;;;10.71;94.87;100860.81;475071;111;922605;-81
2022/12/18 04:00:05;;;;;;;4.53;4.22;;;;;;;10.71;94.91;100881.78;465803;113;922580;-80
2022/12/18 04:01:17;;;;;;;4.98;4.61;;;;;;;10.77;94.78;100878.23;482548;110;946740;-80
2022/12/18 04:02:23;;;;;;;3.89;3.59;;;;;;;10.63;94.61;100882.84;473866;112;922827;-80
2022/12/18 04:03:29;;;;;;;3.85;3.55;;;;;;;10.58;94.50;100884.52;473408;112;922543;-81
2022/12/18 04:04:35;;;;;;;4.13;3.81;;;;;;;10.52;94.33;100894.36;465470;114;922593;-80
2022/12/18 04:05:41;;;;;;;4.16;3.86;;;;;;;10.49;94.27;100889.30;465434;114;922357;-81
2022/12/18 04:06:46;;;;;;;3.82;3.51;;;;;;;10.43;94.19;100899.15;465469;114;922618;-80
2022/12/18 04:07:53;;;;;;;4.02;3.72;;;;;;;10.37;93.86;100893.67;465469;114;922466;-81
2022/12/18 04:08:58;;;;;;;3.44;3.14;;;;;;;10.28;93.53;100908.55;465839;112;922510;-81
2022/12/18 04:10:04;;;;;;;3.66;3.36;;;;;;;10.18;93.26;100906.22;465459;114;922508;-80
2022/12/18 04:11:07;;;;;;;3.09;2.87;;;;;;;10.10;93.18;100914.52;465313;114;930520;-80
2022/12/18 04:12:10;;;;;;;3.67;3.45;;;;;;;10.01;92.84;100924.77;465601;114;922518;-80
2022/12/18 04:13:26;;;;;;;3.94;3.64;;;;;;;9.92;92.63;100930.59;465638;113;922524;-81
2022/12/18 04:14:29;;;;;;;3.73;3.47;;;;;;;9.82;92.39;100921.93;473573;112;922437;-80
2022/12/18 04:15:36;;;;;;;4.17;3.87;;;;;;;9.71;92.21;100933.39;474006;112;922878;-80
2022/12/18 04:16:40;;;;;;;3.67;3.37;;;;;;;9.62;92.19;100943.61;473847;112;923019;-80
2022/12/18 04:17:48;;;;;;;4.43;4.09;;;;;;;9.53;92.07;100951.11;473855;112;922539;-81
2022/12/18 04:18:53;;;;;;;4.17;3.81;;;;;;;9.46;92.04;100954.81;459992;114;922939;-80
2022/12/18 04:19:57;;;;;;;4.08;3.78;;;;;;;9.40;91.84;100961.89;448389;116;923131;-81
2022/12/18 04:21:01;;;;;;;4.47;4.17;;;;;;;9.32;91.77;100962.02;456046;114;922639;-81
2022/12/18 04:22:04;;;;;;;5.16;4.42;;;;;;;9.26;91.80;100962.84;465565;113;922560;-77
2022/12/18 04:23:09;;;;;;;4.04;3.74;;;;;;;9.20;91.79;100974.50;465315;114;923036;-80
2022/12/18 04:24:13;;;;;;;5.09;4.69;;;;;;;9.14;91.61;100962.53;465916;112;922802;-80
2022/12/18 04:25:18;;;;;;;5.05;4.57;;;;;;;9.08;91.49;100967.91;464980;114;922433;-81
2022/12/18 04:26:32;;;;;;;4.74;4.42;;;;;;;9.00;91.18;100968.02;464208;114;922544;-80
2022/12/18 04:27:42;;;;;;;5.48;5.08;;;;;;;8.89;91.07;100966.67;453622;114;922808;-82
2022/12/18 04:28:45;;;;;;;5.36;4.96;;;;;;;8.81;91.13;100969.53;465807;112;922473;-80
2022/12/18 04:29:49;;;;;;;4.89;4.51;;;;;;;8.73;91.28;100978.65;465700;114;922315;-80
2022/12/18 04:30:54;;;;;;;5.63;4.59;;;;;;;8.67;91.30;100976.70;466494;111;922022;-81
2022/12/18 04:31:57;;;;;;;5.09;4.56;;;;;;;8.63;91.30;100971.84;466934;111;922009;-80
2022/12/18 04:33:01;;;;;;;5.52;5.08;;;;;;;8.57;91.22;100965.30;466875;111;930132;-79
2022/12/18 04:34:06;;;;;;;5.01;4.61;;;;;;;8.53;91.25;100976.75;471893;109;922065;-79
2022/12/18 04:35:11;;;;;;;5.80;5.33;;;;;;;8.48;91.16;100979.20;474728;111;930459;-80
2022/12/18 04:37:05;;;;;;;5.85;5.45;;;;;;;8.51;91.27;100978.81;478180;109;947456;-81
2022/12/18 04:38:09;;;;;;;6.03;5.56;;;;;;;8.37;91.25;100988.70;465856;114;922122;-79
2022/12/18 04:39:13;;;;;;;5.74;5.24;;;;;;;8.34;91.37;100995.34;458558;114;930051;-79
2022/12/18 04:40:17;;;;;;;6.01;5.61;;;;;;;8.30;91.23;100994.05;458793;116;922578;-79
2022/12/18 04:41:22;;;;;;;5.98;5.48;;;;;;;8.28;91.17;101000.66;458653;116;922051;-80
2022/12/18 04:42:25;;;;;;;6.01;5.59;;;;;;;8.24;91.24;100996.64;458884;112;922609;-80
2022/12/18 04:43:28;;;;;;;5.41;5.00;;;;;;;8.21;91.06;101010.61;458603;114;922562;-79
2022/12/18 04:44:31;;;;;;;5.82;5.42;;;;;;;8.17;90.98;100995.70;450907;114;922015;-80
2022/12/18 04:45:35;;;;;;;6.16;5.66;;;;;;;8.16;91.01;101013.05;450903;117;922423;-80
2022/12/18 04:46:38;;;;;;;5.88;5.47;;;;;;;8.13;91.01;101013.41;450871;118;922297;-79
2022/12/18 04:47:42;;;;;;;4.79;4.39;;;;;;;8.10;91.07;101021.95;450972;118;922578;-79
2022/12/18 04:48:46;;;;;;;4.86;4.47;;;;;;;8.08;90.99;101015.86;453470;116;922311;-79
2022/12/18 04:49:49;;;;;;;4.31;4.01;;;;;;;8.05;90.78;101024.39;458660;116;922311;-81
2022/12/18 04:50:53;;;;;;;4.20;3.91;;;;;;;8.00;90.45;101024.08;458773;116;930071;-80
2022/12/18 04:51:56;;;;;;;3.99;3.17;;;;;;;7.94;90.45;101028.39;458740;111;922239;-77
2022/12/18 04:52:59;;;;;;;2.98;2.78;;;;;;;7.89;89.85;101031.67;457869;116;922492;-80
2022/12/18 04:54:02;;;;;;;2.69;2.49;;;;;;;7.83;89.55;101028.84;457713;114;923049;-82
2022/12/18 04:55:05;;;;;;;2.40;2.24;;;;;;;7.67;89.16;101034.45;457117;114;922494;-81
2022/12/18 04:56:14;;;;;;;2.29;2.02;;;;;;;7.67;89.16;101034.45;449510;118;922448;-78
2022/12/18 04:57:20;;;;;;;2.23;2.13;;;;;;;7.60;88.91;101038.95;449368;118;922448;-80
2022/12/18 04:58:23;;;;;;;2.06;1.96;;;;;;;7.50;88.64;101040.03;449519;114;922518;-80
2022/12/18 04:59:26;;;;;;;2.74;2.10;;;;;;;7.43;88.47;101038.26;457762;116;922890;-81
2022/12/18 05:00:30;;;;;;;1.90;1.80;;;;;;;7.36;88.46;101040.01;457742;115;922463;-81
2022/12/18 05:01:34;;;;;;;1.69;1.58;;;;;;;7.29;88.52;101045.31;457759;116;923004;-81
2022/12/18 05:02:39;;;;;;;1.83;1.73;;;;;;;7.22;88.15;101046.24;457578;116;922521;-80
2022/12/18 05:03:42;;;;;;;2.11;1.73;;;;;;;7.16;88.28;101046.97;457368;114;922275;-79
2022/12/18 05:04:46;;;;;;;2.43;1.77;;;;;;;7.10;88.40;101048.53;457602;116;922587;-82
2022/12/18 05:05:51;;;;;;;2.01;1.87;;;;;;;7.07;88.56;101047.01;457694;116;930243;-79
2022/12/18 05:06:54;;;;;;;2.15;1.99;;;;;;;7.04;88.69;101050.09;457709;115;922548;-80
2022/12/18 05:07:57;;;;;;;2.17;1.98;;;;;;;7.02;88.80;101054.00;457749;116;922836;-79
2022/12/18 05:09:00;;;;;;;2.82;2.16;;;;;;;6.99;88.86;101049.80;457232;114;922444;-81
2022/12/18 05:10:04;;;;;;;2.61;2.26;;;;;;;6.98;88.85;101058.10;457698;116;922490;-81
2022/12/18 05:11:10;;;;;;;1.86;1.76;;;;;;;6.97;88.98;101056.41;457449;116;922619;-79